Time;durP1;ratioP1;P1;durP2;ratioP2;P2;SDS_P1;SDS_P2;PMS_P1;PMS_P2;Temp;Humidity;BMP_temperature;BMP_pressure;BME280_temperature;BME280_humidity;BME280_pressure;Samples;Min_cycle;Max_cycle;Signal;HPM_P1;HPM_P2
2023/07/17 00:01:07;;;;;;;3.60;1.80;;;18.60;99.90;;;;;;6184527;23;20052;-69
2023/07/17 00:03:33;;;;;;;5.35;1.83;;;18.60;99.90;;;;;;6184474;23;20147;-69
2023/07/17 00:05:58;;;;;;;6.45;1.95;;;18.60;99.90;;;;;;6184094;23;20024;-69
2023/07/17 00:08:25;;;;;;;4.30;2.35;;;18.60;99.90;;;;;;6158314;23;20016;-69
2023/07/17 00:10:51;;;;;;;4.18;1.90;;;18.60;99.90;;;;;;6184120;23;20306;-69
2023/07/17 00:13:16;;;;;;;3.10;1.73;;;18.60;99.90;;;;;;6184531;23;20488;-69
2023/07/17 00:15:42;;;;;;;5.63;2.10;;;18.60;99.90;;;;;;6157913;23;20055;-69
2023/07/17 00:18:08;;;;;;;6.15;1.90;;;18.60;99.90;;;;;;6184268;23;20096;-69
2023/07/17 00:20:34;;;;;;;5.40;1.90;;;18.60;99.90;;;;;;6184037;23;20069;-69
2023/07/17 00:22:59;;;;;;;3.65;1.67;;;18.60;99.90;;;;;;6184301;23;20025;-68
2023/07/17 00:25:25;;;;;;;5.30;2.00;;;18.60;99.90;;;;;;6183143;23;20084;-69
2023/07/17 00:27:51;;;;;;;5.90;2.08;;;18.60;99.90;;;;;;6132754;23;20021;-69
2023/07/17 00:30:16;;;;;;;2.85;1.88;;;18.60;99.90;;;;;;6184319;23;20021;-69
2023/07/17 00:32:42;;;;;;;3.75;1.95;;;18.60;99.90;;;;;;6184039;23;20105;-69
2023/07/17 00:35:08;;;;;;;2.25;1.70;;;18.50;99.90;;;;;;6157137;23;20410;-69
2023/07/17 00:37:34;;;;;;;3.92;1.80;;;18.60;99.90;;;;;;6184012;23;20013;-69
2023/07/17 00:40:00;;;;;;;4.60;2.25;;;18.60;99.90;;;;;;6183639;23;20079;-69
2023/07/17 00:42:25;;;;;;;4.03;1.70;;;18.60;99.90;;;;;;6183541;23;20013;-68
2023/07/17 00:44:51;;;;;;;3.33;2.10;;;18.50;99.90;;;;;;6184076;23;20009;-68
2023/07/17 00:47:17;;;;;;;5.57;2.33;;;18.50;99.90;;;;;;6184112;23;20017;-68
2023/07/17 00:49:43;;;;;;;2.97;1.73;;;18.50;99.90;;;;;;6157093;23;20461;-68
2023/07/17 00:52:10;;;;;;;4.80;1.63;;;18.50;99.90;;;;;;6157842;23;20369;-69
2023/07/17 00:54:38;;;;;;;3.53;1.98;;;18.50;99.90;;;;;;6182366;23;20088;-69
2023/07/17 00:57:05;;;;;;;4.10;2.40;;;18.50;99.90;;;;;;6183811;23;20021;-69
2023/07/17 00:59:31;;;;;;;4.85;1.83;;;18.60;99.90;;;;;;6183369;23;20017;-69
2023/07/17 01:01:57;;;;;;;5.53;2.40;;;18.50;99.90;;;;;;6183804;23;20017;-69
2023/07/17 01:04:23;;;;;;;5.63;2.17;;;18.60;99.90;;;;;;6132336;23;20017;-69
2023/07/17 01:06:48;;;;;;;3.67;2.00;;;18.60;99.90;;;;;;6183381;23;20349;-69
2023/07/17 01:09:17;;;;;;;4.85;1.98;;;18.50;99.90;;;;;;6183576;23;20024;-69
2023/07/17 01:11:44;;;;;;;5.93;2.45;;;18.50;99.90;;;;;;6183396;23;20509;-69
2023/07/17 01:14:17;;;;;;;3.40;2.03;;;18.60;99.90;;;;;;6157178;23;20025;-68
2023/07/17 01:16:45;;;;;;;6.68;2.45;;;18.50;99.90;;;;;;6183632;23;20057;-69
2023/07/17 01:19:11;;;;;;;5.53;1.90;;;18.50;99.90;;;;;;6183296;23;20024;-69
2023/07/17 01:21:51;;;;;;;4.80;2.00;;;18.50;99.90;;;;;;6183018;23;20017;-69
2023/07/17 01:24:19;;;;;;;4.82;1.60;;;18.50;99.90;;;;;;6183291;23;20077;-69
2023/07/17 01:26:44;;;;;;;6.82;1.90;;;18.40;99.90;;;;;;6183537;23;20044;-69
2023/07/17 01:29:10;;;;;;;4.20;2.03;;;18.40;99.90;;;;;;6183034;23;20017;-69
2023/07/17 01:31:38;;;;;;;5.85;2.03;;;18.40;99.90;;;;;;6156895;23;20020;-69
2023/07/17 01:34:04;;;;;;;5.10;2.15;;;18.30;99.90;;;;;;6183059;23;20013;-69
2023/07/17 01:36:30;;;;;;;9.60;1.95;;;18.30;99.90;;;;;;6156396;23;20023;-69
2023/07/17 01:38:55;;;;;;;10.23;2.00;;;18.30;99.90;;;;;;6183428;23;20084;-69
2023/07/17 01:41:23;;;;;;;7.30;2.10;;;18.30;99.90;;;;;;6183196;23;20013;-68
2023/07/17 01:43:49;;;;;;;4.45;1.45;;;18.30;99.90;;;;;;6183048;23;20441;-69
2023/07/17 01:46:15;;;;;;;3.65;1.83;;;18.30;99.90;;;;;;6183001;23;20032;-68
2023/07/17 01:48:41;;;;;;;5.20;1.90;;;18.20;99.90;;;;;;6156581;23;20009;-69
2023/07/17 01:51:06;;;;;;;4.70;1.70;;;18.20;99.90;;;;;;6182683;23;20087;-69
2023/07/17 01:53:32;;;;;;;6.70;1.63;;;18.20;99.90;;;;;;6183117;23;20025;-69
2023/07/17 01:56:00;;;;;;;2.75;1.17;;;18.20;99.90;;;;;;6156295;23;20519;-69
2023/07/17 01:58:26;;;;;;;6.65;2.65;;;18.10;99.90;;;;;;6156626;23;20441;-69
2023/07/17 02:00:54;;;;;;;6.65;1.80;;;18.10;99.90;;;;;;6184208;23;20017;-69
2023/07/17 02:03:20;;;;;;;5.45;1.60;;;18.10;99.90;;;;;;6156663;23;20391;-69
2023/07/17 02:05:46;;;;;;;10.13;2.00;;;18.10;99.90;;;;;;6182776;23;20437;-69
2023/07/17 02:08:11;;;;;;;7.78;1.83;;;18.10;99.90;;;;;;6156709;23;20032;-69
2023/07/17 02:10:41;;;;;;;5.53;1.75;;;18.00;99.90;;;;;;6182880;23;20324;-69
2023/07/17 02:13:07;;;;;;;4.40;1.60;;;18.00;99.90;;;;;;6182875;23;20017;-69
2023/07/17 02:15:33;;;;;;;7.63;1.83;;;17.90;99.90;;;;;;6156426;23;20092;-68
2023/07/17 02:17:59;;;;;;;5.43;2.13;;;18.00;99.90;;;;;;6182938;23;20009;-69
2023/07/17 02:20:24;;;;;;;4.50;1.60;;;17.90;99.90;;;;;;6182398;23;20441;-69
2023/07/17 02:22:50;;;;;;;5.35;1.52;;;17.90;99.90;;;;;;6182703;23;20079;-69
2023/07/17 02:25:17;;;;;;;9.52;2.20;;;17.90;99.90;;;;;;6156191;23;20024;-69
2023/07/17 02:27:42;;;;;;;9.20;2.83;;;17.80;99.90;;;;;;6156419;23;20515;-69
2023/07/17 02:30:09;;;;;;;7.45;1.85;;;17.80;99.90;;;;;;6156270;23;20031;-69
2023/07/17 02:32:34;;;;;;;4.57;1.92;;;17.80;99.90;;;;;;6156058;23;20475;-70
2023/07/17 02:35:00;;;;;;;10.70;2.42;;;17.80;99.90;;;;;;6156008;23;20017;-69
2023/07/17 02:37:26;;;;;;;8.52;2.17;;;17.80;99.90;;;;;;6183042;23;20040;-69
2023/07/17 02:39:52;;;;;;;5.72;2.10;;;17.80;99.90;;;;;;6182924;23;20123;-69
2023/07/17 02:42:18;;;;;;;5.47;1.95;;;17.80;99.90;;;;;;6182821;23;20044;-69
2023/07/17 02:44:45;;;;;;;5.30;2.05;;;17.70;99.90;;;;;;6182877;23;20449;-69
2023/07/17 02:47:10;;;;;;;7.15;2.30;;;17.70;99.90;;;;;;6182606;23;20013;-69
2023/07/17 02:49:38;;;;;;;4.78;1.77;;;17.70;99.90;;;;;;6155863;23;20016;-69
2023/07/17 02:52:05;;;;;;;6.70;2.30;;;17.70;99.90;;;;;;6182569;23;20016;-69
2023/07/17 02:54:31;;;;;;;5.18;2.00;;;17.60;99.90;;;;;;6155721;23;20444;-69
2023/07/17 02:56:56;;;;;;;4.72;1.88;;;17.60;99.90;;;;;;6182766;23;20020;-69
2023/07/17 02:59:22;;;;;;;5.43;1.95;;;17.60;99.90;;;;;;6182894;23;20078;-69
2023/07/17 03:01:48;;;;;;;4.45;2.10;;;17.60;99.90;;;;;;6182095;23;20052;-69
2023/07/17 03:04:14;;;;;;;7.88;2.65;;;17.60;99.90;;;;;;6155913;23;20017;-70
2023/07/17 03:06:40;;;;;;;6.35;2.42;;;17.60;99.90;;;;;;6182869;23;20021;-69
2023/07/17 03:09:06;;;;;;;8.38;2.20;;;17.60;99.90;;;;;;6182652;23;20017;-69
2023/07/17 03:11:33;;;;;;;5.90;2.10;;;17.60;99.90;;;;;;6182778;23;20044;-69
2023/07/17 03:13:58;;;;;;;5.00;2.17;;;17.50;99.90;;;;;;6182912;23;20048;-69
2023/07/17 03:16:24;;;;;;;6.10;2.70;;;17.60;99.90;;;;;;6182463;23;20024;-69
2023/07/17 03:18:50;;;;;;;7.93;2.50;;;17.50;99.90;;;;;;6131695;23;20072;-69
2023/07/17 03:21:15;;;;;;;7.28;3.33;;;17.40;99.90;;;;;;6156458;23;20028;-69
2023/07/17 03:23:41;;;;;;;6.85;2.20;;;17.50;99.90;;;;;;6182963;23;20021;-69
2023/07/17 03:26:07;;;;;;;5.05;2.10;;;17.50;99.90;;;;;;6182588;23;20039;-69
2023/07/17 03:28:33;;;;;;;6.85;2.35;;;17.40;99.90;;;;;;6182173;23;20029;-69
2023/07/17 03:30:58;;;;;;;7.85;2.38;;;17.40;99.90;;;;;;6155911;23;20024;-69
2023/07/17 03:33:25;;;;;;;7.47;2.35;;;17.30;99.90;;;;;;6182421;23;20009;-69
2023/07/17 03:35:51;;;;;;;5.13;2.10;;;17.30;99.90;;;;;;6156068;23;20009;-68
2023/07/17 03:38:16;;;;;;;6.95;2.22;;;17.20;99.90;;;;;;6182222;23;20597;-69
2023/07/17 03:40:42;;;;;;;4.22;2.05;;;17.20;99.90;;;;;;6182217;23;20013;-69
2023/07/17 03:43:08;;;;;;;6.65;2.60;;;17.10;99.90;;;;;;6182274;23;20020;-69
2023/07/17 03:45:33;;;;;;;6.00;2.55;;;17.10;99.90;;;;;;6182072;23;20020;-69
2023/07/17 03:47:59;;;;;;;6.65;2.40;;;17.10;99.90;;;;;;6155542;23;20028;-69
2023/07/17 03:50:25;;;;;;;8.75;2.70;;;17.00;99.90;;;;;;6182525;23;20016;-69
2023/07/17 03:52:51;;;;;;;5.97;2.42;;;17.00;99.90;;;;;;6182233;23;20013;-68
2023/07/17 03:55:16;;;;;;;5.95;2.80;;;17.00;99.90;;;;;;6182633;23;20048;-68
2023/07/17 03:57:42;;;;;;;6.65;2.28;;;16.90;99.90;;;;;;6182660;23;20013;-69
2023/07/17 04:00:14;;;;;;;9.07;2.60;;;16.90;99.90;;;;;;6182515;23;20017;-69
2023/07/17 04:02:44;;;;;;;5.65;3.08;;;16.90;99.90;;;;;;6130889;23;20028;-69
2023/07/17 04:05:13;;;;;;;6.95;2.67;;;16.90;99.90;;;;;;6182629;23;20075;-69
2023/07/17 04:07:38;;;;;;;6.50;2.83;;;16.90;99.90;;;;;;6182549;23;20023;-69
2023/07/17 04:10:05;;;;;;;7.40;2.40;;;17.00;99.90;;;;;;6183718;23;20013;-69
2023/07/17 04:12:31;;;;;;;5.10;2.40;;;16.90;99.90;;;;;;6184167;23;20063;-69
2023/07/17 04:14:57;;;;;;;10.05;3.05;;;17.00;99.90;;;;;;6184429;23;20008;-69
2023/07/17 04:17:23;;;;;;;7.30;2.83;;;17.00;99.90;;;;;;6183622;23;20037;-70
2023/07/17 04:19:48;;;;;;;8.90;3.08;;;17.10;99.90;;;;;;6184293;23;20005;-69
2023/07/17 04:22:14;;;;;;;8.93;3.10;;;17.20;99.90;;;;;;6184086;23;20445;-69
2023/07/17 04:24:40;;;;;;;7.63;3.13;;;17.20;99.90;;;;;;6184133;23;20024;-69
2023/07/17 04:27:06;;;;;;;9.15;2.25;;;17.20;99.90;;;;;;6184483;23;20088;-69
2023/07/17 04:29:31;;;;;;;7.43;2.35;;;17.30;99.90;;;;;;6183900;23;20024;-69
2023/07/17 04:31:57;;;;;;;5.03;2.90;;;17.30;99.90;;;;;;6157272;23;20021;-70
2023/07/17 04:34:23;;;;;;;5.68;3.08;;;17.40;99.90;;;;;;6183842;23;20091;-69
2023/07/17 04:36:49;;;;;;;5.15;2.58;;;17.40;99.90;;;;;;6184138;23;20060;-69
2023/07/17 04:39:14;;;;;;;6.75;2.70;;;17.40;99.90;;;;;;6183830;23;20439;-69
2023/07/17 04:41:40;;;;;;;7.90;2.70;;;17.40;99.90;;;;;;6183988;23;20013;-69
2023/07/17 04:44:06;;;;;;;8.60;2.80;;;17.40;99.90;;;;;;6184257;23;20187;-70
2023/07/17 04:46:33;;;;;;;4.82;2.78;;;17.50;99.90;;;;;;6183865;23;20036;-69
2023/07/17 04:48:59;;;;;;;8.60;2.80;;;17.50;99.90;;;;;;6157299;23;20295;-69
2023/07/17 04:51:25;;;;;;;11.23;3.10;;;17.60;99.90;;;;;;6157172;23;20017;-69
2023/07/17 04:53:52;;;;;;;6.28;3.25;;;17.70;99.90;;;;;;6183234;23;20337;-69
2023/07/17 04:56:17;;;;;;;6.93;3.00;;;17.80;99.90;;;;;;6183868;23;20369;-69
2023/07/17 04:58:43;;;;;;;8.57;2.70;;;17.80;99.90;;;;;;6183954;23;20017;-69
2023/07/17 05:01:09;;;;;;;8.52;3.15;;;17.90;99.90;;;;;;6183469;23;20021;-69
2023/07/17 05:03:36;;;;;;;7.80;2.55;;;17.90;99.90;;;;;;6183612;23;20107;-69
2023/07/17 05:06:02;;;;;;;5.57;2.60;;;18.00;99.90;;;;;;6183810;23;20019;-69
2023/07/17 05:08:27;;;;;;;6.88;2.97;;;18.00;99.90;;;;;;6183532;23;20113;-69
2023/07/17 05:10:58;;;;;;;7.95;3.10;;;18.20;99.90;;;;;;6183335;23;20024;-69
2023/07/17 05:13:23;;;;;;;11.93;3.05;;;18.20;99.90;;;;;;6183515;23;20013;-69
2023/07/17 05:15:50;;;;;;;9.20;3.40;;;18.20;99.90;;;;;;6183361;23;20071;-69
2023/07/17 05:18:16;;;;;;;7.85;2.92;;;18.40;99.90;;;;;;6183503;23;20321;-69
2023/07/17 05:20:50;;;;;;;8.85;2.85;;;18.40;99.90;;;;;;6183667;23;20024;-69
2023/07/17 05:23:16;;;;;;;7.72;2.85;;;18.50;99.90;;;;;;6156817;23;20045;-69
2023/07/17 05:25:56;;;;;;;6.32;2.70;;;18.50;99.90;;;;;;6183373;23;20160;-69
2023/07/17 05:28:22;;;;;;;8.93;2.75;;;18.60;99.90;;;;;;6182823;23;20386;-69
2023/07/17 05:30:52;;;;;;;8.07;2.90;;;18.70;99.90;;;;;;6183169;23;20067;-69
2023/07/17 05:33:19;;;;;;;8.25;2.47;;;18.80;99.90;;;;;;6183538;23;20024;-69
2023/07/17 05:35:44;;;;;;;6.93;2.85;;;18.80;99.90;;;;;;6183081;23;20013;-69
2023/07/17 05:38:10;;;;;;;9.15;3.28;;;18.90;99.90;;;;;;6183468;23;20011;-69
2023/07/17 05:40:37;;;;;;;12.23;3.03;;;18.90;99.90;;;;;;6183454;23;20460;-69
2023/07/17 05:43:04;;;;;;;5.03;3.05;;;19.00;99.90;;;;;;6156553;23;20017;-68
2023/07/17 05:45:29;;;;;;;9.88;2.83;;;19.10;99.90;;;;;;6183385;23;20021;-68
2023/07/17 05:47:55;;;;;;;8.60;3.30;;;19.20;99.90;;;;;;6183462;23;20005;-68
2023/07/17 05:50:21;;;;;;;9.25;3.38;;;19.20;99.90;;;;;;6183043;23;20020;-68
2023/07/17 05:52:46;;;;;;;7.15;2.53;;;19.20;99.90;;;;;;6182125;23;20080;-69
2023/07/17 05:55:12;;;;;;;8.63;3.10;;;19.20;99.90;;;;;;6183051;23;20020;-68
2023/07/17 05:57:38;;;;;;;9.27;3.25;;;19.30;99.90;;;;;;6156145;23;20025;-69
2023/07/17 06:00:05;;;;;;;9.25;3.20;;;19.40;99.90;;;;;;6182878;23;20043;-69
2023/07/17 06:02:30;;;;;;;13.38;3.30;;;19.40;99.90;;;;;;6182862;23;20460;-69
2023/07/17 06:04:56;;;;;;;8.60;2.83;;;19.40;99.90;;;;;;6183119;23;20009;-69
2023/07/17 06:07:22;;;;;;;9.93;3.60;;;19.40;99.90;;;;;;6131853;23;20345;-68
2023/07/17 06:09:48;;;;;;;10.73;3.60;;;19.40;99.90;;;;;;6182884;23;20020;-69
2023/07/17 06:12:14;;;;;;;9.57;2.95;;;19.40;99.90;;;;;;6182926;23;20017;-69
2023/07/17 06:14:39;;;;;;;9.75;3.33;;;19.50;99.90;;;;;;6183239;23;20076;-69
2023/07/17 06:17:05;;;;;;;11.43;4.00;;;19.50;99.90;;;;;;6183190;23;20013;-69
2023/07/17 06:19:31;;;;;;;11.60;3.78;;;19.50;99.90;;;;;;6184380;23;20067;-69
2023/07/17 06:21:56;;;;;;;12.30;3.58;;;19.50;99.90;;;;;;6183010;23;20032;-69
2023/07/17 06:24:22;;;;;;;9.90;3.60;;;19.60;99.90;;;;;;6182500;23;20013;-69
2023/07/17 06:26:48;;;;;;;10.25;3.33;;;19.60;99.90;;;;;;6182242;23;20021;-69
2023/07/17 06:29:13;;;;;;;15.43;3.92;;;19.60;99.90;;;;;;6182641;23;20027;-69
2023/07/17 06:31:39;;;;;;;12.90;4.00;;;19.60;99.90;;;;;;6182885;23;20009;-69
2023/07/17 06:34:05;;;;;;;14.48;4.28;;;19.60;99.90;;;;;;6182599;23;20067;-69
2023/07/17 06:36:31;;;;;;;11.20;3.72;;;19.50;99.90;;;;;;6156676;23;20021;-68
2023/07/17 06:38:56;;;;;;;11.23;3.80;;;19.50;99.90;;;;;;6182762;23;20060;-70
2023/07/17 06:41:22;;;;;;;15.10;4.22;;;19.60;99.90;;;;;;6182619;23;20762;-68
2023/07/17 06:43:48;;;;;;;12.18;4.15;;;19.80;99.90;;;;;;6182985;23;20032;-69
2023/07/17 06:46:14;;;;;;;10.90;4.10;;;19.80;99.90;;;;;;6182877;23;20055;-69
2023/07/17 06:48:41;;;;;;;10.52;4.00;;;19.80;99.90;;;;;;6182338;23;20449;-68
2023/07/17 06:51:06;;;;;;;11.15;3.75;;;20.00;99.90;;;;;;6182929;23;20428;-68
2023/07/17 06:53:32;;;;;;;10.75;4.18;;;19.90;99.90;;;;;;6182595;23;20013;-69
2023/07/17 06:56:03;;;;;;;10.98;4.60;;;19.90;99.90;;;;;;6182648;23;20092;-69
2023/07/17 06:58:29;;;;;;;10.85;4.10;;;19.80;99.90;;;;;;6182924;23;20020;-68
2023/07/17 07:00:56;;;;;;;13.77;4.57;;;19.90;99.90;;;;;;6182675;23;20009;-68
2023/07/17 07:03:23;;;;;;;14.63;4.15;;;19.90;99.90;;;;;;6182268;23;20021;-69
2023/07/17 07:05:56;;;;;;;10.45;4.30;;;20.00;99.90;;;;;;6182516;23;20349;-68
2023/07/17 07:08:22;;;;;;;14.50;4.07;;;20.00;99.90;;;;;;6156051;23;20139;-69
2023/07/17 07:10:53;;;;;;;9.10;4.28;;;20.00;99.90;;;;;;6155620;23;20450;-69
2023/07/17 07:13:20;;;;;;;14.00;4.18;;;20.00;99.90;;;;;;6182551;23;20021;-69
2023/07/17 07:15:46;;;;;;;13.95;4.28;;;20.00;99.90;;;;;;6182753;23;20009;-69
2023/07/17 07:18:12;;;;;;;12.27;4.15;;;20.00;99.90;;;;;;6182395;23;20019;-68
2023/07/17 07:20:37;;;;;;;10.75;4.30;;;20.00;99.90;;;;;;6156029;23;20024;-68
2023/07/17 07:23:03;;;;;;;15.23;4.38;;;19.90;99.90;;;;;;6182684;23;20013;-68
2023/07/17 07:25:29;;;;;;;12.60;4.25;;;19.90;99.90;;;;;;6182250;23;20021;-68
2023/07/17 07:27:55;;;;;;;12.73;4.35;;;19.90;99.90;;;;;;6182078;23;20063;-68
2023/07/17 07:30:21;;;;;;;12.27;4.90;;;20.10;99.90;;;;;;6182705;23;20013;-68
2023/07/17 07:32:47;;;;;;;12.60;4.65;;;20.00;99.90;;;;;;6182772;23;20017;-70
2023/07/17 07:35:13;;;;;;;13.57;4.32;;;20.00;99.90;;;;;;6182461;23;20452;-69
2023/07/17 07:37:39;;;;;;;9.93;4.15;;;20.10;99.90;;;;;;6156711;23;20052;-69
2023/07/17 07:40:06;;;;;;;12.50;4.05;;;20.20;99.90;;;;;;6131746;23;20021;-68
2023/07/17 07:42:32;;;;;;;14.93;4.07;;;20.20;99.90;;;;;;6182621;23;20100;-69
2023/07/17 07:44:58;;;;;;;10.98;4.32;;;20.20;99.90;;;;;;6184366;23;20485;-69
2023/07/17 07:47:24;;;;;;;11.43;4.07;;;20.20;99.90;;;;;;6184665;23;20080;-69
2023/07/17 07:49:50;;;;;;;12.82;4.35;;;20.20;99.90;;;;;;6184661;23;20024;-69
2023/07/17 07:52:16;;;;;;;9.13;3.90;;;20.20;99.90;;;;;;6158251;23;20083;-69
2023/07/17 07:54:44;;;;;;;12.98;3.60;;;20.40;99.90;;;;;;6184091;23;20017;-69
2023/07/17 07:57:09;;;;;;;11.63;4.15;;;20.50;99.90;;;;;;6184137;23;20056;-69
2023/07/17 07:59:35;;;;;;;12.77;4.00;;;20.50;99.90;;;;;;6184390;23;20009;-70
2023/07/17 08:02:02;;;;;;;8.93;4.25;;;20.60;99.90;;;;;;6184259;23;20019;-69
2023/07/17 08:04:30;;;;;;;15.20;4.22;;;20.70;99.90;;;;;;6184537;23;20084;-69
2023/07/17 08:06:56;;;;;;;11.27;3.67;;;20.80;99.90;;;;;;6183979;23;20449;-70
2023/07/17 08:09:22;;;;;;;9.85;4.18;;;20.90;99.90;;;;;;6157351;23;20021;-70
2023/07/17 08:11:48;;;;;;;11.70;4.07;;;21.00;99.90;;;;;;6157232;23;20023;-70
2023/07/17 08:14:14;;;;;;;15.00;3.88;;;21.00;99.90;;;;;;6183716;23;20013;-70
2023/07/17 08:16:40;;;;;;;13.32;3.97;;;20.90;99.90;;;;;;6157325;23;20054;-70
2023/07/17 08:19:06;;;;;;;10.48;3.70;;;21.10;99.90;;;;;;6184120;23;20005;-70
2023/07/17 08:21:32;;;;;;;9.70;3.17;;;21.10;99.90;;;;;;6183561;23;20460;-70
2023/07/17 08:23:58;;;;;;;10.77;3.72;;;21.10;99.90;;;;;;6183407;23;20016;-70
2023/07/17 08:26:24;;;;;;;8.48;3.10;;;21.10;99.90;;;;;;6183509;23;20014;-70
2023/07/17 08:28:50;;;;;;;8.45;3.65;;;21.10;99.90;;;;;;6183255;23;20029;-69
2023/07/17 08:31:16;;;;;;;7.32;3.42;;;21.10;99.90;;;;;;6183614;23;20017;-69
2023/07/17 08:33:41;;;;;;;9.35;3.40;;;21.20;99.90;;;;;;6183859;23;20045;-70
2023/07/17 08:36:07;;;;;;;9.95;3.65;;;21.10;99.90;;;;;;6157163;23;20215;-70
2023/07/17 08:38:33;;;;;;;8.60;3.53;;;21.10;99.90;;;;;;6156556;23;20022;-69
2023/07/17 08:40:59;;;;;;;8.27;3.53;;;21.00;99.90;;;;;;6156557;23;20052;-69
2023/07/17 08:43:26;;;;;;;11.93;4.43;;;20.90;99.90;;;;;;6132258;23;20349;-69
2023/07/17 08:45:52;;;;;;;12.02;4.63;;;20.80;99.90;;;;;;6183779;23;20120;-69
2023/07/17 08:48:19;;;;;;;12.43;4.30;;;20.70;99.90;;;;;;6157144;23;20432;-69
2023/07/17 08:50:45;;;;;;;14.30;4.15;;;20.60;99.90;;;;;;6183771;23;20036;-69
2023/07/17 08:53:11;;;;;;;10.00;3.95;;;20.60;99.90;;;;;;6157156;23;20017;-69
2023/07/17 08:55:37;;;;;;;10.68;4.10;;;20.60;99.90;;;;;;6183932;23;20024;-69
2023/07/17 08:58:03;;;;;;;8.73;3.55;;;20.50;99.90;;;;;;6156468;23;20349;-70
2023/07/17 09:00:30;;;;;;;8.38;3.65;;;20.70;99.90;;;;;;6183608;23;20461;-70
2023/07/17 09:02:56;;;;;;;11.88;3.92;;;20.80;99.90;;;;;;6183820;23;20084;-69
2023/07/17 09:05:22;;;;;;;12.13;3.65;;;20.80;99.90;;;;;;6183566;23;20469;-69
2023/07/17 09:07:48;;;;;;;9.20;3.20;;;20.80;99.90;;;;;;6183769;23;20020;-69
2023/07/17 09:10:22;;;;;;;12.15;4.07;;;20.80;99.90;;;;;;6156760;23;20097;-69
2023/07/17 09:12:52;;;;;;;9.52;3.47;;;20.80;99.90;;;;;;6183251;23;20013;-69
2023/07/17 09:15:18;;;;;;;10.80;4.03;;;20.70;99.90;;;;;;6157070;23;20027;-70
2023/07/17 09:17:44;;;;;;;9.68;4.00;;;20.70;99.90;;;;;;6183352;23;20024;-69
2023/07/17 09:20:13;;;;;;;9.38;3.75;;;20.80;99.90;;;;;;6183164;23;20017;-69
2023/07/17 09:22:39;;;;;;;7.30;3.40;;;20.90;99.90;;;;;;6183552;23;20013;-70
2023/07/17 09:25:06;;;;;;;11.55;3.35;;;20.90;99.90;;;;;;6182724;23;20337;-70
2023/07/17 09:27:51;;;;;;;9.60;3.30;;;20.80;99.90;;;;;;6183661;23;20013;-70
2023/07/17 09:30:22;;;;;;;11.43;3.40;;;20.70;99.90;;;;;;6183729;23;20412;-70
2023/07/17 09:32:49;;;;;;;11.75;3.70;;;20.60;99.90;;;;;;6157113;23;20017;-70
2023/07/17 09:35:20;;;;;;;13.15;3.70;;;20.40;99.90;;;;;;6183241;23;20005;-69
2023/07/17 09:37:46;;;;;;;10.35;4.13;;;20.20;99.90;;;;;;6183619;23;20082;-70
2023/07/17 09:40:16;;;;;;;9.27;3.45;;;20.20;99.90;;;;;;6183540;23;20013;-69
2023/07/17 09:42:51;;;;;;;8.77;3.90;;;20.30;99.90;;;;;;6183060;23;20024;-69
2023/07/17 09:45:19;;;;;;;7.38;3.55;;;20.30;99.90;;;;;;6183366;23;20025;-68
2023/07/17 09:47:51;;;;;;;8.20;3.97;;;20.40;99.90;;;;;;6182985;23;20017;-68
2023/07/17 09:50:23;;;;;;;8.90;3.55;;;20.30;99.90;;;;;;6183249;23;20017;-68
2023/07/17 09:52:50;;;;;;;7.90;3.28;;;20.30;99.90;;;;;;6156700;23;20053;-68
2023/07/17 09:55:20;;;;;;;8.93;3.53;;;20.40;99.90;;;;;;6183158;23;20067;-68
2023/07/17 09:57:47;;;;;;;10.10;3.53;;;20.50;99.90;;;;;;6156481;23;20290;-69
2023/07/17 10:00:18;;;;;;;7.53;3.17;;;20.60;99.90;;;;;;6183405;23;20017;-69
2023/07/17 10:02:58;;;;;;;9.20;3.08;;;20.60;99.90;;;;;;6183352;23;20016;-69
2023/07/17 10:05:24;;;;;;;14.82;4.00;;;20.60;99.90;;;;;;6156435;23;20059;-69
2023/07/17 10:07:52;;;;;;;13.00;3.85;;;20.80;99.90;;;;;;6182610;23;20144;-69
2023/07/17 10:10:18;;;;;;;12.30;3.65;;;20.80;99.90;;;;;;6156818;23;20084;-69
2023/07/17 10:12:45;;;;;;;8.25;3.42;;;20.90;99.90;;;;;;6183108;23;20067;-69
2023/07/17 10:15:13;;;;;;;9.23;3.17;;;21.00;99.90;;;;;;6182964;23;20377;-69
2023/07/17 10:17:40;;;;;;;6.75;3.35;;;21.10;99.90;;;;;;6156598;23;20021;-69
2023/07/17 10:20:10;;;;;;;10.18;3.78;;;21.10;99.90;;;;;;6182568;23;20452;-69
2023/07/17 10:22:43;;;;;;;16.98;3.38;;;21.10;99.90;;;;;;6182773;23;20013;-69
2023/07/17 10:25:18;;;;;;;8.93;3.05;;;21.10;99.90;;;;;;6131482;23;20016;-69
2023/07/17 10:27:52;;;;;;;8.98;3.35;;;21.10;99.90;;;;;;6156022;23;20059;-69
2023/07/17 10:30:31;;;;;;;12.30;3.20;;;21.00;99.90;;;;;;6182872;23;20020;-69
2023/07/17 10:33:05;;;;;;;8.20;2.95;;;21.20;99.90;;;;;;6183717;23;20023;-69
2023/07/17 10:35:47;;;;;;;7.53;2.97;;;21.20;99.90;;;;;;6156477;23;20052;-69
2023/07/17 10:38:15;;;;;;;8.00;2.97;;;21.00;99.90;;;;;;6182665;23;20473;-69
2023/07/17 10:40:40;;;;;;;8.48;3.22;;;21.10;99.90;;;;;;6156174;23;20028;-69
2023/07/17 10:43:11;;;;;;;9.27;3.40;;;21.20;99.90;;;;;;6156210;23;20021;-69
2023/07/17 10:45:37;;;;;;;8.70;3.10;;;21.30;99.90;;;;;;6182845;23;20063;-69
2023/07/17 10:48:05;;;;;;;6.35;2.70;;;21.40;99.90;;;;;;6155693;23;20397;-69
2023/07/17 10:50:30;;;;;;;8.43;3.05;;;21.40;99.90;;;;;;6182685;23;20437;-70
2023/07/17 10:53:03;;;;;;;8.18;2.60;;;21.50;99.90;;;;;;6156181;23;20052;-69
2023/07/17 10:55:30;;;;;;;10.27;2.95;;;21.50;99.90;;;;;;6181975;23;20020;-69
2023/07/17 10:57:57;;;;;;;7.93;3.00;;;21.60;99.90;;;;;;6182422;23;20075;-69
2023/07/17 11:00:23;;;;;;;5.00;2.53;;;21.70;99.90;;;;;;6182834;23;20389;-69
2023/07/17 11:02:49;;;;;;;5.38;2.15;;;21.80;99.90;;;;;;6182169;23;20017;-69
2023/07/17 11:05:15;;;;;;;5.90;2.55;;;21.70;99.90;;;;;;6182809;23;20009;-69
2023/07/17 11:07:41;;;;;;;5.90;2.33;;;21.80;99.90;;;;;;6182808;23;20168;-69
2023/07/17 11:10:11;;;;;;;5.90;2.30;;;21.90;99.90;;;;;;6131584;23;20020;-69
2023/07/17 11:12:41;;;;;;;3.85;2.28;;;21.90;99.90;;;;;;6182500;23;20038;-69
2023/07/17 11:15:17;;;;;;;11.80;2.53;;;22.00;99.90;;;;;;6156027;23;20021;-69
2023/07/17 11:17:44;;;;;;;6.90;2.75;;;22.10;99.90;;;;;;6156168;23;20116;-69
2023/07/17 11:20:11;;;;;;;7.10;2.53;;;22.20;99.90;;;;;;6184577;23;20075;-68
2023/07/17 11:22:38;;;;;;;5.22;2.22;;;22.20;99.90;;;;;;6184685;23;20021;-69
2023/07/17 11:25:05;;;;;;;7.97;2.22;;;22.20;99.90;;;;;;6184619;23;20013;-69
2023/07/17 11:27:31;;;;;;;5.72;2.38;;;22.20;99.90;;;;;;6158286;23;20460;-69
2023/07/17 11:29:56;;;;;;;10.75;2.58;;;22.10;99.90;;;;;;6157591;23;20052;-68
2023/07/17 11:32:22;;;;;;;7.78;2.20;;;22.10;99.90;;;;;;6158097;23;20337;-69
2023/07/17 11:34:58;;;;;;;6.63;1.92;;;22.20;99.90;;;;;;6157697;23;20017;-69
2023/07/17 11:37:31;;;;;;;4.00;1.75;;;22.20;99.90;;;;;;6184347;23;20017;-69
2023/07/17 11:39:56;;;;;;;10.18;2.17;;;22.30;99.90;;;;;;6184745;23;20021;-69
2023/07/17 11:42:22;;;;;;;7.25;1.98;;;22.40;99.90;;;;;;6157701;23;20095;-69
2023/07/17 11:44:58;;;;;;;4.55;1.90;;;22.40;99.90;;;;;;6184670;23;20092;-69
2023/07/17 11:47:26;;;;;;;4.63;1.90;;;22.50;99.90;;;;;;6184319;23;20013;-69
2023/07/17 11:49:55;;;;;;;4.05;1.67;;;22.50;99.90;;;;;;6153164;23;20096;-69
2023/07/17 11:52:20;;;;;;;4.00;1.83;;;22.50;99.90;;;;;;6184758;23;20013;-69
2023/07/17 11:54:46;;;;;;;4.85;1.63;;;22.30;99.90;;;;;;6157962;23;20017;-69
2023/07/17 11:57:12;;;;;;;6.20;1.58;;;22.40;99.90;;;;;;6157076;23;20021;-69
2023/07/17 11:59:38;;;;;;;6.38;1.70;;;22.40;99.90;;;;;;6184263;23;20067;-69
2023/07/17 12:02:04;;;;;;;5.43;1.90;;;22.50;99.90;;;;;;6184388;23;20412;-69
2023/07/17 12:04:39;;;;;;;3.92;1.50;;;22.70;99.90;;;;;;6184373;23;20051;-69
2023/07/17 12:07:06;;;;;;;3.22;1.50;;;22.70;99.90;;;;;;6184578;23;20013;-69
2023/07/17 12:09:32;;;;;;;4.32;1.75;;;22.70;99.90;;;;;;6184331;23;20045;-69
2023/07/17 12:11:57;;;;;;;4.30;1.85;;;22.60;99.90;;;;;;6184386;23;20017;-69
2023/07/17 12:14:23;;;;;;;4.30;1.80;;;22.60;99.90;;;;;;6183734;23;20349;-69
2023/07/17 12:16:49;;;;;;;7.95;1.17;;;22.40;99.90;;;;;;6184375;23;20092;-69
2023/07/17 12:19:15;;;;;;;7.47;1.60;;;22.30;99.90;;;;;;6184301;23;20017;-69
2023/07/17 12:21:40;;;;;;;4.93;2.08;;;22.20;99.90;;;;;;6183881;23;20088;-69
2023/07/17 12:24:06;;;;;;;3.97;1.60;;;22.30;99.90;;;;;;6157627;23;20059;-69
2023/07/17 12:26:32;;;;;;;6.53;1.85;;;22.30;99.90;;;;;;6157257;23;20017;-70
2023/07/17 12:28:58;;;;;;;6.70;2.08;;;22.00;99.90;;;;;;6183221;23;20120;-69
2023/07/17 12:31:24;;;;;;;6.50;2.42;;;21.80;99.90;;;;;;6182716;23;20017;-67
2023/07/17 12:33:50;;;;;;;5.72;2.50;;;21.50;99.90;;;;;;6180486;23;20457;-68
2023/07/17 12:36:15;;;;;;;7.35;2.25;;;21.20;99.90;;;;;;6184127;23;20124;-68
2023/07/17 12:38:41;;;;;;;4.75;1.65;;;20.80;99.90;;;;;;6134263;23;20017;-67
2023/07/17 12:41:07;;;;;;;8.20;1.95;;;20.50;99.90;;;;;;6183856;23;20097;-68